Time;durP1;ratioP1;P1;durP2;ratioP2;P2;SDS_P1;SDS_P2;PMS_P1;PMS_P2;Temp;Humidity;BMP_temperature;BMP_pressure;BME280_temperature;BME280_humidity;BME280_pressure;Samples;Min_cycle;Max_cycle;Signal;HPM_P1;HPM_P2
2021/10/10 00:01:26;;;;;;;;;;;12.10;99.90;;;;;;5086066;28;19930;-80
2021/10/10 00:03:52;;;;;;;;;;;12.10;99.90;;;;;;5087010;28;19922;-80
2021/10/10 00:06:18;;;;;;;;;;;12.20;99.90;;;;;;5086624;28;19974;-80
2021/10/10 00:08:43;;;;;;;;;;;12.20;99.90;;;;;;5086907;28;19935;-80
2021/10/10 00:11:09;;;;;;;;;;;12.10;99.90;;;;;;5086749;28;19920;-80
2021/10/10 00:13:35;;;;;;;;;;;12.00;99.90;;;;;;5081687;28;19927;-80
2021/10/10 00:16:00;;;;;;;;;;;12.10;99.90;;;;;;5087917;28;19908;-79
2021/10/10 00:18:26;;;;;;;;;;;12.00;99.90;;;;;;5088452;28;20003;-80
2021/10/10 00:20:52;;;;;;;;;;;12.10;99.90;;;;;;5084447;28;20058;-80
2021/10/10 00:23:18;;;;;;;;;;;12.20;99.90;;;;;;5085343;28;19916;-80
2021/10/10 00:25:43;;;;;;;;;;;12.20;99.90;;;;;;5086041;28;19936;-79
2021/10/10 00:28:09;;;;;;;;;;;12.20;99.90;;;;;;5087253;28;19916;-80
2021/10/10 00:30:35;;;;;;;;;;;12.20;99.90;;;;;;5087092;28;19913;-80
2021/10/10 00:33:00;;;;;;;;;;;12.10;99.90;;;;;;5088381;28;19908;-80
2021/10/10 00:35:26;;;;;;;;;;;12.20;99.90;;;;;;5081207;28;19912;-80
2021/10/10 00:37:52;;;;;;;;;;;12.40;99.90;;;;;;5086416;28;20338;-80
2021/10/10 00:40:17;;;;;;;;;;;12.30;99.90;;;;;;5082217;28;19928;-79
2021/10/10 00:42:43;;;;;;;;;;;12.20;99.90;;;;;;5097458;28;19912;-80
2021/10/10 00:45:09;;;;;;;;;;;12.20;99.90;;;;;;5087441;28;19916;-80
2021/10/10 00:47:36;;;;;;;;;;;12.20;99.90;;;;;;5067516;28;19909;-80
2021/10/10 00:50:01;;;;;;;;;;;12.20;99.90;;;;;;5087276;28;20206;-79
2021/10/10 00:52:27;;;;;;;;;;;12.20;99.90;;;;;;5090611;28;19920;-80
2021/10/10 00:54:54;;;;;;;;;;;12.30;99.90;;;;;;5080943;28;19912;-79
2021/10/10 00:57:20;;;;;;;;;;;12.30;99.90;;;;;;5085821;28;19923;-80
2021/10/10 00:59:46;;;;;;;;;;;12.20;99.90;;;;;;5079629;28;19912;-79
2021/10/10 01:02:12;;;;;;;;;;;12.30;99.90;;;;;;5079552;28;19944;-79
2021/10/10 01:04:38;;;;;;;;;;;12.30;99.90;;;;;;5074052;28;20380;-79
2021/10/10 01:07:04;;;;;;;;;;;12.40;99.90;;;;;;5083991;28;19913;-79
2021/10/10 01:09:31;;;;;;;;;;;12.40;99.90;;;;;;5086503;28;19939;-79
2021/10/10 01:11:56;;;;;;;;;;;12.30;99.90;;;;;;5087576;28;19909;-79
2021/10/10 01:14:23;;;;;;;;;;;12.30;99.90;;;;;;5079279;28;19913;-79
2021/10/10 01:16:49;;;;;;;;;;;12.30;99.90;;;;;;5081570;28;19916;-79
2021/10/10 01:19:16;;;;;;;;;;;12.40;99.90;;;;;;5082755;28;19913;-79
2021/10/10 01:21:42;;;;;;;;;;;12.40;99.90;;;;;;5078266;28;19987;-79
2021/10/10 01:24:08;;;;;;;;;;;12.60;99.90;;;;;;5093732;28;19916;-79
2021/10/10 01:26:33;;;;;;;;;;;12.60;99.90;;;;;;5085201;28;20362;-80
2021/10/10 01:28:59;;;;;;;;;;;12.60;99.90;;;;;;5083813;28;19954;-79
2021/10/10 01:31:25;;;;;;;;;;;12.50;99.90;;;;;;5084004;28;19916;-79
2021/10/10 01:33:53;;;;;;;;;;;12.40;99.90;;;;;;5083060;28;19939;-79
2021/10/10 01:36:21;;;;;;;;;;;12.40;99.90;;;;;;5080838;28;20202;-82
2021/10/10 01:38:47;;;;;;;;;;;12.30;99.90;;;;;;5083779;28;19909;-80
2021/10/10 01:41:14;;;;;;;;;;;12.40;99.90;;;;;;5082658;28;19912;-79
2021/10/10 01:43:40;;;;;;;;;;;12.40;99.90;;;;;;5083408;28;19908;-79
2021/10/10 01:46:09;;;;;;;;;;;12.30;99.90;;;;;;5085473;28;19917;-80
2021/10/10 01:48:35;;;;;;;;;;;12.30;99.90;;;;;;5102243;28;19908;-79
2021/10/10 01:51:02;;;;;;;;;;;12.50;99.90;;;;;;5085333;28;20004;-79
2021/10/10 01:53:28;;;;;;;;;;;12.40;99.90;;;;;;5087906;28;19964;-79
2021/10/10 01:55:53;;;;;;;;;;;12.40;99.90;;;;;;5081671;28;19920;-79
2021/10/10 01:58:19;;;;;;;;;;;12.40;99.90;;;;;;5083124;28;19908;-79
2021/10/10 02:00:45;;;;;;;;;;;12.50;99.90;;;;;;5083426;28;19909;-79
2021/10/10 02:03:10;;;;;;;;;;;12.60;99.90;;;;;;5082959;28;19912;-79
2021/10/10 02:05:36;;;;;;;;;;;12.70;99.90;;;;;;5084672;28;19909;-79
2021/10/10 02:08:02;;;;;;;;;;;12.70;99.90;;;;;;5084749;28;19913;-79
2021/10/10 02:10:27;;;;;;;;;;;12.70;99.90;;;;;;5082695;28;19912;-79
2021/10/10 02:12:53;;;;;;;;;;;12.60;99.90;;;;;;5078221;28;20507;-79
2021/10/10 02:15:19;;;;;;;;;;;12.50;99.90;;;;;;5077097;28;19958;-79
2021/10/10 02:17:44;;;;;;;;;;;12.50;99.90;;;;;;5077943;28;19909;-79
2021/10/10 02:20:10;;;;;;;;;;;12.40;99.90;;;;;;5083370;28;19909;-79
2021/10/10 02:22:36;;;;;;;;;;;12.30;99.90;;;;;;5085875;28;19915;-80
2021/10/10 02:25:03;;;;;;;;;;;12.40;99.90;;;;;;5083342;28;19916;-79
2021/10/10 02:27:29;;;;;;;;;;;12.40;99.90;;;;;;5081648;28;19963;-79
2021/10/10 02:29:54;;;;;;;;;;;12.50;99.90;;;;;;5085465;28;19912;-79
2021/10/10 02:32:20;;;;;;;;;;;12.40;99.90;;;;;;5086719;28;19958;-79
2021/10/10 02:34:45;;;;;;;;;;;12.50;99.90;;;;;;5085547;28;19919;-79
2021/10/10 02:37:11;;;;;;;;;;;12.40;99.90;;;;;;5085924;28;19923;-79
2021/10/10 02:39:37;;;;;;;;;;;12.40;99.90;;;;;;5085801;28;19913;-80
2021/10/10 02:42:03;;;;;;;;;;;12.50;99.90;;;;;;5079779;28;19913;-80
2021/10/10 02:44:28;;;;;;;;;;;12.40;99.90;;;;;;5080241;28;19914;-79
2021/10/10 02:46:55;;;;;;;;;;;12.40;99.90;;;;;;5083090;28;19912;-79
2021/10/10 02:49:20;;;;;;;;;;;12.40;99.90;;;;;;5079859;28;19955;-79
2021/10/10 02:51:46;;;;;;;;;;;12.40;99.90;;;;;;5080247;28;19974;-79
2021/10/10 02:54:12;;;;;;;;;;;12.50;99.90;;;;;;5080666;28;19917;-79
2021/10/10 02:56:37;;;;;;;;;;;12.40;99.90;;;;;;5078653;28;19943;-79
2021/10/10 02:59:03;;;;;;;;;;;12.50;99.90;;;;;;5078813;28;19915;-79
2021/10/10 03:01:29;;;;;;;;;;;12.50;99.90;;;;;;5094598;28;19936;-79
2021/10/10 03:03:55;;;;;;;;;;;12.50;99.90;;;;;;5079910;28;19915;-79
2021/10/10 03:06:23;;;;;;;;;;;12.60;99.90;;;;;;5077839;28;19919;-79
2021/10/10 03:08:49;;;;;;;;;;;12.50;99.90;;;;;;5078753;28;19909;-79
2021/10/10 03:11:15;;;;;;;;;;;12.50;99.90;;;;;;5078951;28;19912;-79
2021/10/10 03:13:40;;;;;;;;;;;12.40;99.90;;;;;;5081051;28;19913;-79
2021/10/10 03:16:06;;;;;;;;;;;12.50;99.90;;;;;;5079210;28;19912;-79
2021/10/10 03:18:32;;;;;;;;;;;12.40;99.90;;;;;;5079732;28;19913;-79
2021/10/10 03:20:57;;;;;;;;;;;12.40;99.90;;;;;;5077822;28;20004;-79
2021/10/10 03:23:23;;;;;;;;;;;12.30;99.90;;;;;;5078173;28;20577;-79
2021/10/10 03:25:49;;;;;;;;;;;12.30;99.90;;;;;;5079316;28;20350;-79
2021/10/10 03:28:14;;;;;;;;;;;12.30;99.90;;;;;;5078947;28;20365;-79
2021/10/10 03:30:40;;;;;;;;;;;12.20;99.90;;;;;;5077617;28;20315;-79
2021/10/10 03:33:06;;;;;;;;;;;12.20;99.90;;;;;;5079161;28;20302;-79
2021/10/10 03:35:31;;;;;;;;;;;12.20;99.90;;;;;;5079684;28;20509;-79
2021/10/10 03:37:57;;;;;;;;;;;12.20;99.90;;;;;;5077602;28;19963;-79
2021/10/10 03:40:23;;;;;;;;;;;12.10;99.90;;;;;;5076974;28;19908;-78
2021/10/10 03:42:49;;;;;;;;;;;12.00;99.90;;;;;;5075743;28;19908;-78
2021/10/10 03:45:14;;;;;;;;;;;12.00;99.90;;;;;;5075786;28;19915;-79
2021/10/10 03:47:41;;;;;;;;;;;12.00;99.90;;;;;;5074297;28;19926;-79
2021/10/10 03:50:07;;;;;;;;;;;12.00;99.90;;;;;;5084280;28;19989;-79
2021/10/10 03:52:32;;;;;;;;;;;12.10;99.90;;;;;;5077332;28;20401;-79
2021/10/10 03:55:19;;;;;;;;;;;12.10;99.90;;;;;;5075682;28;19912;-78
2021/10/10 03:57:45;;;;;;;;;;;12.00;99.90;;;;;;5075304;28;19912;-78
2021/10/10 04:00:13;;;;;;;;;;;11.90;99.90;;;;;;5080362;28;19939;-78
2021/10/10 04:02:39;;;;;;;;;;;11.90;99.90;;;;;;5073086;28;19952;-78
2021/10/10 04:05:08;;;;;;;;;;;11.80;99.90;;;;;;5078661;28;19909;-78
2021/10/10 04:07:34;;;;;;;;;;;11.80;99.90;;;;;;5077783;28;19912;-78
2021/10/10 04:09:59;;;;;;;;;;;11.80;99.90;;;;;;5072318;28;19939;-79
2021/10/10 04:12:25;;;;;;;;;;;11.70;99.90;;;;;;5078241;28;20277;-78
2021/10/10 04:14:51;;;;;;;;;;;11.70;99.90;;;;;;5078427;28;19915;-78
2021/10/10 04:17:16;;;;;;;;;;;11.70;99.90;;;;;;5068556;28;20003;-78
2021/10/10 04:19:42;;;;;;;;;;;11.70;99.90;;;;;;5078487;28;19909;-78
2021/10/10 04:22:07;;;;;;;;;;;11.60;99.90;;;;;;5067772;28;19912;-77
2021/10/10 04:24:33;;;;;;;;;;;11.60;99.90;;;;;;5079308;28;19939;-80
2021/10/10 04:26:59;;;;;;;;;;;11.60;99.90;;;;;;5073697;28;20300;-77
2021/10/10 04:29:24;;;;;;;;;;;11.60;99.90;;;;;;5081719;28;19974;-79
2021/10/10 04:31:50;;;;;;;;;;;11.50;99.90;;;;;;5087052;28;19912;-77
2021/10/10 04:34:16;;;;;;;;;;;11.60;99.90;;;;;;5078178;28;19908;-78
2021/10/10 04:36:41;;;;;;;;;;;11.50;99.90;;;;;;5079623;28;19916;-77
2021/10/10 04:39:07;;;;;;;;;;;11.50;99.90;;;;;;5083238;28;20013;-77
2021/10/10 04:41:33;;;;;;;;;;;11.50;99.90;;;;;;5080156;28;20289;-77
2021/10/10 04:43:58;;;;;;;;;;;11.40;99.90;;;;;;5077840;28;19913;-77
2021/10/10 04:46:24;;;;;;;;;;;11.50;99.90;;;;;;5077943;28;19913;-79
2021/10/10 04:48:50;;;;;;;;;;;11.40;99.90;;;;;;5079341;28;20358;-77
2021/10/10 04:51:15;;;;;;;;;;;11.50;99.90;;;;;;5078935;28;19962;-77
2021/10/10 04:53:41;;;;;;;;;;;11.40;99.90;;;;;;5078486;28;19950;-78
2021/10/10 04:56:06;;;;;;;;;;;11.40;99.90;;;;;;5075729;28;20425;-77
2021/10/10 04:58:32;;;;;;;;;;;11.40;99.90;;;;;;5074495;28;19921;-77
2021/10/10 05:00:58;;;;;;;;;;;11.40;99.90;;;;;;5072900;28;19908;-77
2021/10/10 05:03:26;;;;;;;;;;;11.40;99.90;;;;;;5075187;28;19920;-77
2021/10/10 05:05:52;;;;;;;;;;;11.40;99.90;;;;;;5075517;28;19992;-77
2021/10/10 05:08:18;;;;;;;;;;;11.30;99.90;;;;;;5075537;28;19913;-77
2021/10/10 05:10:43;;;;;;;;;;;11.30;99.90;;;;;;5074956;28;19917;-79
2021/10/10 05:13:09;;;;;;;;;;;11.20;99.90;;;;;;5079174;28;19916;-77
2021/10/10 05:15:35;;;;;;;;;;;11.30;99.90;;;;;;5080244;28;19920;-79
2021/10/10 05:18:01;;;;;;;;;;;11.30;99.90;;;;;;5077864;28;19920;-77
2021/10/10 05:20:27;;;;;;;;;;;11.30;99.90;;;;;;5077138;28;19971;-77
2021/10/10 05:22:53;;;;;;;;;;;11.30;99.90;;;;;;5078375;28;20015;-78
2021/10/10 05:25:18;;;;;;;;;;;11.30;99.90;;;;;;5076544;28;19919;-77
2021/10/10 05:27:44;;;;;;;;;;;11.30;99.90;;;;;;5078253;28;19913;-78
2021/10/10 05:30:10;;;;;;;;;;;11.20;99.90;;;;;;5079464;28;20533;-78
2021/10/10 05:32:35;;;;;;;;;;;11.20;99.90;;;;;;5084827;28;19912;-79
2021/10/10 05:35:01;;;;;;;;;;;11.20;99.90;;;;;;5082167;28;19917;-78
2021/10/10 05:37:27;;;;;;;;;;;11.20;99.90;;;;;;5073143;28;20000;-78
2021/10/10 05:39:52;;;;;;;;;;;11.20;99.90;;;;;;5086756;28;19917;-77
2021/10/10 05:42:18;;;;;;;;;;;11.20;99.90;;;;;;5091509;28;19916;-77
2021/10/10 05:44:44;;;;;;;;;;;11.20;99.90;;;;;;5088146;28;19944;-80
2021/10/10 05:47:10;;;;;;;;;;;11.20;99.90;;;;;;5080319;28;19912;-78
2021/10/10 05:49:36;;;;;;;;;;;11.20;99.90;;;;;;5077583;28;19919;-78
2021/10/10 05:52:03;;;;;;;;;;;11.10;99.90;;;;;;5077455;28;20009;-77
2021/10/10 05:54:31;;;;;;;;;;;11.20;99.90;;;;;;5074537;28;19924;-77
2021/10/10 05:56:59;;;;;;;;;;;11.20;99.90;;;;;;5076476;28;19962;-78
2021/10/10 05:59:25;;;;;;;;;;;11.20;99.90;;;;;;5071988;28;19913;-78
2021/10/10 06:01:50;;;;;;;;;;;11.30;99.90;;;;;;5073750;28;19912;-79
2021/10/10 06:04:16;;;;;;;;;;;11.30;99.90;;;;;;5080336;28;19912;-78
2021/10/10 06:06:42;;;;;;;;;;;11.40;99.90;;;;;;5080345;28;19924;-80
2021/10/10 06:09:08;;;;;;;;;;;11.40;99.90;;;;;;5076622;28;19920;-80
2021/10/10 06:11:34;;;;;;;;;;;11.40;99.90;;;;;;5078884;28;19923;-79
2021/10/10 06:14:00;;;;;;;;;;;11.50;99.90;;;;;;5080220;28;19913;-78
2021/10/10 06:16:26;;;;;;;;;;;11.50;99.90;;;;;;5079433;28;19940;-78
2021/10/10 06:18:52;;;;;;;;;;;11.60;99.90;;;;;;5078794;28;19922;-81
2021/10/10 06:21:18;;;;;;;;;;;11.80;99.90;;;;;;5079782;28;20004;-78
2021/10/10 06:23:44;;;;;;;;;;;11.90;99.90;;;;;;5078015;28;19963;-79
2021/10/10 06:26:09;;;;;;;;;;;11.90;99.90;;;;;;5086383;28;19947;-78
2021/10/10 06:28:35;;;;;;;;;;;11.80;99.90;;;;;;5084306;28;20012;-79
2021/10/10 06:31:00;;;;;;;;;;;12.00;99.90;;;;;;5079402;28;19978;-79
2021/10/10 06:33:26;;;;;;;;;;;12.10;99.90;;;;;;5082188;28;19977;-79
2021/10/10 06:35:52;;;;;;;;;;;12.00;99.90;;;;;;5082351;28;19924;-79
2021/10/10 06:38:18;;;;;;;;;;;12.00;99.90;;;;;;5080286;28;19927;-79
2021/10/10 06:40:46;;;;;;;;;;;12.00;99.90;;;;;;5086358;28;19916;-79
2021/10/10 06:43:12;;;;;;;;;;;12.00;99.90;;;;;;5080261;28;19938;-80
2021/10/10 06:45:37;;;;;;;;;;;12.10;99.90;;;;;;5093694;28;20370;-79
2021/10/10 06:48:03;;;;;;;;;;;12.20;99.90;;;;;;5079903;28;19976;-79
2021/10/10 06:50:29;;;;;;;;;;;12.10;99.90;;;;;;5081482;28;19999;-79
2021/10/10 06:52:54;;;;;;;;;;;12.10;99.90;;;;;;5078305;28;20355;-79
2021/10/10 06:55:20;;;;;;;;;;;12.10;99.90;;;;;;5081877;28;19947;-79
2021/10/10 06:57:45;;;;;;;;;;;12.20;99.90;;;;;;5080379;28;19980;-79
2021/10/10 07:00:11;;;;;;;;;;;12.30;99.90;;;;;;5080335;28;19981;-79
2021/10/10 07:02:41;;;;;;;;;;;12.30;99.90;;;;;;5079903;28;19919;-79
2021/10/10 07:05:07;;;;;;;;;;;12.30;99.90;;;;;;5084051;28;19912;-79
2021/10/10 07:07:33;;;;;;;;;;;12.40;99.90;;;;;;5092222;28;20187;-79
2021/10/10 07:09:59;;;;;;;;;;;12.60;99.90;;;;;;5082871;28;19967;-79
2021/10/10 07:12:24;;;;;;;;;;;12.60;99.90;;;;;;5078861;28;19913;-79
2021/10/10 07:14:51;;;;;;;;;;;12.80;99.90;;;;;;5082064;28;19913;-79
2021/10/10 07:17:16;;;;;;;;;;;13.00;99.90;;;;;;5070596;28;19909;-79
2021/10/10 07:19:51;;;;;;;;;;;13.10;99.90;;;;;;5082298;28;19952;-79
2021/10/10 07:25:04;;;;;;;;;;;13.10;99.90;;;;;;5084202;28;19922;-79
2021/10/10 07:27:31;;;;;;;;;;;13.20;99.90;;;;;;5086644;28;19913;-79
2021/10/10 07:29:57;;;;;;;;;;;13.30;99.90;;;;;;5081745;28;20011;-79
2021/10/10 07:32:23;;;;;;;;;;;13.30;99.90;;;;;;5097780;28;19912;-79
2021/10/10 07:34:49;;;;;;;;;;;13.10;99.90;;;;;;5082131;28;19951;-79
2021/10/10 07:37:15;;;;;;;;;;;12.80;99.90;;;;;;5080308;28;19912;-79
2021/10/10 07:39:40;;;;;;;;;;;12.70;99.90;;;;;;5075949;28;19909;-76
2021/10/10 07:42:06;;;;;;;;;;;12.60;99.90;;;;;;5078283;28;20363;-76
2021/10/10 07:44:31;;;;;;;;;;;12.60;99.90;;;;;;5080450;28;19913;-75
2021/10/10 07:47:08;;;;;;;;;;;12.70;99.90;;;;;;5080617;28;19966;-76
2021/10/10 07:49:34;;;;;;;;;;;12.80;99.90;;;;;;5072910;28;20577;-76
2021/10/10 07:52:02;;;;;;;;;;;12.90;99.90;;;;;;5076317;28;19948;-76
2021/10/10 07:54:28;;;;;;;;;;;12.70;99.90;;;;;;5086277;28;19926;-75
2021/10/10 07:56:54;;;;;;;;;;;12.60;99.90;;;;;;5078740;28;20424;-76
2021/10/10 07:59:19;;;;;;;;;;;12.50;99.90;;;;;;5078570;28;19916;-76
2021/10/10 08:01:45;;;;;;;;;;;12.40;99.90;;;;;;5080298;28;19920;-76
2021/10/10 08:04:11;;;;;;;;;;;12.40;99.90;;;;;;5079166;28;20010;-76
2021/10/10 08:06:36;;;;;;;;;;;12.30;99.90;;;;;;5074281;28;19909;-75
2021/10/10 08:09:02;;;;;;;;;;;12.20;99.90;;;;;;5077503;28;19916;-80
2021/10/10 08:11:27;;;;;;;;;;;12.20;99.90;;;;;;5078240;28;20316;-76
2021/10/10 08:13:53;;;;;;;;;;;12.20;99.90;;;;;;5079785;28;19916;-76
2021/10/10 08:16:19;;;;;;;;;;;12.10;99.90;;;;;;5076380;28;19908;-76
2021/10/10 08:18:44;;;;;;;;;;;12.20;99.90;;;;;;5075545;28;19912;-76
2021/10/10 08:21:10;;;;;;;;;;;12.20;99.90;;;;;;5074078;28;19966;-76
2021/10/10 08:23:36;;;;;;;;;;;12.30;99.90;;;;;;5080286;28;19916;-76
2021/10/10 08:26:01;;;;;;;;;;;12.40;99.90;;;;;;5072935;28;19912;-77
2021/10/10 08:28:27;;;;;;;;;;;12.50;99.90;;;;;;5081277;28;19990;-78
2021/10/10 08:30:54;;;;;;;;;;;12.40;99.90;;;;;;5079092;28;19924;-76
2021/10/10 08:33:20;;;;;;;;;;;12.50;99.90;;;;;;5078120;28;19965;-76
2021/10/10 08:35:45;;;;;;;;;;;12.60;99.90;;;;;;5076607;28;19916;-77
2021/10/10 08:38:11;;;;;;;;;;;12.70;99.90;;;;;;5073931;28;19915;-76
2021/10/10 08:40:37;;;;;;;;;;;12.70;99.90;;;;;;5080197;28;19912;-76
2021/10/10 08:43:05;;;;;;;;;;;12.60;99.90;;;;;;5079119;28;19917;-77
2021/10/10 08:45:32;;;;;;;;;;;12.70;99.90;;;;;;5081589;28;19931;-77
2021/10/10 08:47:57;;;;;;;;;;;12.70;99.90;;;;;;5079118;28;19920;-77
2021/10/10 08:50:27;;;;;;;;;;;12.90;99.90;;;;;;5079723;28;19924;-77
2021/10/10 08:52:56;;;;;;;;;;;12.90;99.90;;;;;;5079694;28;20540;-76
2021/10/10 08:55:22;;;;;;;;;;;13.00;99.90;;;;;;5073177;28;20377;-77
2021/10/10 08:57:49;;;;;;;;;;;13.10;99.90;;;;;;5081756;28;19916;-78
2021/10/10 09:00:22;;;;;;;;;;;13.10;99.90;;;;;;5072723;28;19969;-77
2021/10/10 09:02:51;;;;;;;;;;;13.00;99.90;;;;;;5076931;28;19965;-74
2021/10/10 09:05:16;;;;;;;;;;;12.90;99.90;;;;;;5072306;28;19918;-75
2021/10/10 09:07:44;;;;;;;;;;;12.90;99.90;;;;;;5076423;28;19917;-78
2021/10/10 09:10:20;;;;;;;;;;;12.90;99.90;;;;;;5077850;28;19916;-77
2021/10/10 09:12:49;;;;;;;;;;;12.60;99.90;;;;;;5082803;28;19919;-77
2021/10/10 09:15:16;;;;;;;;;;;12.80;99.90;;;;;;5073754;28;20318;-77
2021/10/10 09:17:50;;;;;;;;;;;12.70;99.90;;;;;;5074779;28;19999;-78
2021/10/10 09:20:24;;;;;;;;;;;12.90;99.90;;;;;;5079520;28;19912;-77
2021/10/10 09:22:49;;;;;;;;;;;12.90;99.90;;;;;;5081233;28;19919;-77
2021/10/10 09:25:16;;;;;;;;;;;12.70;99.90;;;;;;5072091;28;19920;-77
2021/10/10 09:27:41;;;;;;;;;;;12.70;99.90;;;;;;5074118;28;19997;-78
2021/10/10 09:30:08;;;;;;;;;;;12.80;99.90;;;;;;5074908;28;20338;-77
2021/10/10 09:32:34;;;;;;;;;;;12.70;99.90;;;;;;5072936;28;19920;-77
2021/10/10 09:35:03;;;;;;;;;;;12.90;99.90;;;;;;5072532;28;19913;-77
2021/10/10 09:37:42;;;;;;;;;;;12.70;99.90;;;;;;5074681;28;19934;-78
2021/10/10 09:40:12;;;;;;;;;;;12.80;99.90;;;;;;5065087;28;19909;-76
2021/10/10 09:42:41;;;;;;;;;;;13.00;99.90;;;;;;5073959;28;19912;-77
2021/10/10 09:45:19;;;;;;;;;;;13.00;99.90;;;;;;5072836;28;20404;-76
2021/10/10 09:47:54;;;;;;;;;;;13.10;99.90;;;;;;5074717;28;19921;-77
2021/10/10 09:50:20;;;;;;;;;;;13.20;99.90;;;;;;5077260;28;19920;-80
2021/10/10 09:52:45;;;;;;;;;;;13.00;99.90;;;;;;5074167;28;19913;-77
2021/10/10 09:55:12;;;;;;;;;;;12.80;99.90;;;;;;5070159;28;19915;-76
2021/10/10 09:57:44;;;;;;;;;;;13.00;99.90;;;;;;5077399;28;19973;-77
2021/10/10 10:00:20;;;;;;;;;;;13.10;99.90;;;;;;5070565;28;19913;-77
2021/10/10 10:02:48;;;;;;;;;;;13.20;99.90;;;;;;5078782;28;19958;-77
2021/10/10 10:05:24;;;;;;;;;;;13.20;99.90;;;;;;5074447;28;20289;-77
2021/10/10 10:07:50;;;;;;;;;;;13.30;99.90;;;;;;5075287;28;19918;-77
2021/10/10 10:10:16;;;;;;;;;;;13.50;99.90;;;;;;5069518;28;19916;-76
2021/10/10 10:12:41;;;;;;;;;;;13.50;99.90;;;;;;5073988;28;20590;-77
2021/10/10 10:15:07;;;;;;;;;;;13.50;99.90;;;;;;5072734;28;19919;-77
2021/10/10 10:17:33;;;;;;;;;;;13.30;99.90;;;;;;5082341;28;19944;-78
2021/10/10 10:20:00;;;;;;;;;;;13.30;99.90;;;;;;5095094;28;19908;-78
2021/10/10 10:22:30;;;;;;;;;;;13.50;99.90;;;;;;5081431;28;19912;-77
2021/10/10 10:24:56;;;;;;;;;;;13.70;99.90;;;;;;5094627;28;19916;-77
2021/10/10 10:27:26;;;;;;;;;;;13.60;99.90;;;;;;5087285;28;19908;-77
2021/10/10 10:29:53;;;;;;;;;;;13.50;99.90;;;;;;5071009;28;19920;-77
2021/10/10 10:32:19;;;;;;;;;;;13.70;99.90;;;;;;5091674;28;19919;-77
2021/10/10 10:35:02;;;;;;;;;;;13.50;99.90;;;;;;5070759;28;19987;-77
2021/10/10 10:37:43;;;;;;;;;;;13.70;99.90;;;;;;5074015;28;19913;-77
2021/10/10 10:40:14;;;;;;;;;;;13.50;99.90;;;;;;5078402;28;19913;-77
2021/10/10 10:42:44;;;;;;;;;;;13.50;99.90;;;;;;5080032;28;19947;-77
2021/10/10 10:45:20;;;;;;;;;;;13.70;99.90;;;;;;5078234;28;19916;-77
2021/10/10 10:47:47;;;;;;;;;;;13.50;99.90;;;;;;5072869;28;20011;-77
2021/10/10 10:50:19;;;;;;;;;;;13.70;99.90;;;;;;5072067;28;20271;-77
2021/10/10 10:52:54;;;;;;;;;;;14.00;99.90;;;;;;5081207;28;20181;-77
2021/10/10 10:55:22;;;;;;;;;;;14.00;99.90;;;;;;5083900;28;19908;-78
2021/10/10 10:57:52;;;;;;;;;;;14.10;99.90;;;;;;5077370;28;20401;-78
2021/10/10 11:00:21;;;;;;;;;;;14.10;99.90;;;;;;5083552;28;20294;-76
2021/10/10 11:03:01;;;;;;;;;;;13.80;99.90;;;;;;5071251;28;19916;-77
2021/10/10 11:05:36;;;;;;;;;;;14.00;99.90;;;;;;5062091;28;20303;-78
2021/10/10 11:08:06;;;;;;;;;;;14.00;99.90;;;;;;5068239;28;19937;-76
2021/10/10 11:10:32;;;;;;;;;;;13.80;99.90;;;;;;5060059;28;19916;-75
2021/10/10 11:13:18;;;;;;;;;;;13.70;99.90;;;;;;5077352;28;19908;-78
2021/10/10 11:15:54;;;;;;;;;;;13.70;99.90;;;;;;5085396;28;19913;-76
2021/10/10 11:18:21;;;;;;;;;;;13.80;99.90;;;;;;5067969;28;19924;-76
2021/10/10 11:20:51;;;;;;;;;;;14.00;99.90;;;;;;5078191;28;19913;-76
2021/10/10 11:23:17;;;;;;;;;;;14.10;99.90;;;;;;5057078;28;19920;-76
2021/10/10 11:25:43;;;;;;;;;;;14.10;99.90;;;;;;5061281;28;20463;-76
2021/10/10 11:28:08;;;;;;;;;;;14.30;99.90;;;;;;5067388;28;20042;-76
2021/10/10 11:30:34;;;;;;;;;;;14.60;99.90;;;;;;5055417;28;20417;-76
2021/10/10 11:33:00;;;;;;;;;;;14.60;99.90;;;;;;5067288;28;19913;-76
2021/10/10 11:35:26;;;;;;;;;;;14.90;99.90;;;;;;5065517;28;19913;-76
2021/10/10 11:38:09;;;;;;;;;;;14.70;99.90;;;;;;5074645;28;19913;-76
2021/10/10 11:40:36;;;;;;;;;;;14.70;99.90;;;;;;5071302;28;19928;-76
2021/10/10 11:43:01;;;;;;;;;;;14.90;99.90;;;;;;5083895;28;20000;-77
2021/10/10 11:45:28;;;;;;;;;;;15.00;99.90;;;;;;5083499;28;19950;-77
2021/10/10 11:47:54;;;;;;;;;;;14.90;99.90;;;;;;5079135;28;19909;-77
2021/10/10 11:50:20;;;;;;;;;;;14.80;99.90;;;;;;5076482;28;19912;-77
2021/10/10 11:52:56;;;;;;;;;;;14.50;99.90;;;;;;5077171;28;20358;-78
2021/10/10 11:55:27;;;;;;;;;;;14.50;99.90;;;;;;5066989;28;19932;-78
2021/10/10 11:57:54;;;;;;;;;;;14.20;99.90;;;;;;5056431;28;19912;-77
2021/10/10 12:00:22;;;;;;;;;;;14.10;99.90;;;;;;5075644;28;20049;-77
2021/10/10 12:02:49;;;;;;;;;;;14.10;99.90;;;;;;5076653;28;19908;-78
2021/10/10 12:05:18;;;;;;;;;;;14.10;99.90;;;;;;5074670;28;19919;-78
2021/10/10 12:07:48;;;;;;;;;;;14.10;99.90;;;;;;5075493;28;19909;-77
2021/10/10 12:10:18;;;;;;;;;;;13.80;99.90;;;;;;5076254;28;19916;-76
2021/10/10 12:12:44;;;;;;;;;;;13.40;99.90;;;;;;5062016;28;19916;-76
2021/10/10 12:15:10;;;;;;;;;;;13.50;99.90;;;;;;5055935;28;20416;-76
2021/10/10 12:17:37;;;;;;;;;;;13.20;99.90;;;;;;5060930;28;19924;-76
2021/10/10 12:20:15;;;;;;;;;;;13.10;99.90;;;;;;5055894;28;20416;-77
2021/10/10 12:22:47;;;;;;;;;;;13.10;99.90;;;;;;5058772;28;20015;-77
2021/10/10 12:25:32;;;;;;;;;;;13.20;99.90;;;;;;5075804;28;20411;-78
2021/10/10 12:28:03;;;;;;;;;;;13.10;99.90;;;;;;5071305;28;19909;-75
2021/10/10 12:30:38;;;;;;;;;;;12.90;99.90;;;;;;5069096;28;19927;-75
2021/10/10 12:33:22;;;;;;;;;;;12.90;99.90;;;;;;5055897;28;19913;-77
2021/10/10 12:35:52;;;;;;;;;;;13.10;99.90;;;;;;5063716;28;19951;-76
2021/10/10 12:38:26;;;;;;;;;;;12.90;99.90;;;;;;5074691;28;19915;-76
2021/10/10 12:40:52;;;;;;;;;;;12.80;99.90;;;;;;5074824;28;20409;-76
2021/10/10 12:43:31;;;;;;;;;;;12.70;99.90;;;;;;5075721;28;19908;-76
2021/10/10 12:46:00;;;;;;;;;;;12.80;99.90;;;;;;5075184;28;19909;-75
2021/10/10 12:48:26;;;;;;;;;;;12.80;99.90;;;;;;5055581;28;19952;-67
2021/10/10 12:50:53;;;;;;;;;;;13.00;99.90;;;;;;5055394;28;20651;-70
2021/10/10 12:53:30;;;;;;;;;;;13.00;99.90;;;;;;5055030;28;19927;-71
2021/10/10 12:56:14;;;;;;;;;;;13.10;99.90;;;;;;5055727;28;20425;-71
2021/10/10 12:58:46;;;;;;;;;;;13.00;99.90;;;;;;5055016;28;20394;-74
2021/10/10 13:01:12;;;;;;;;;;;13.00;99.90;;;;;;5059096;28;19909;-74
2021/10/10 13:03:37;;;;;;;;;;;12.90;99.90;;;;;;5073754;28;19935;-74
2021/10/10 13:06:03;;;;;;;;;;;12.90;99.90;;;;;;5073297;28;19908;-74
2021/10/10 13:08:29;;;;;;;;;;;12.80;99.90;;;;;;5074744;28;19969;-74
2021/10/10 13:10:54;;;;;;;;;;;12.70;99.90;;;;;;5075051;28;19955;-74
2021/10/10 13:13:20;;;;;;;;;;;12.70;99.90;;;;;;5055855;28;19913;-74
2021/10/10 13:15:45;;;;;;;;;;;12.80;99.90;;;;;;5067834;28;20366;-75
2021/10/10 13:18:11;;;;;;;;;;;13.00;99.90;;;;;;5071304;28;19908;-74
2021/10/10 13:20:36;;;;;;;;;;;13.00;99.90;;;;;;5073563;28;19919;-74
2021/10/10 13:23:02;;;;;;;;;;;12.90;99.90;;;;;;5069835;28;19927;-74
2021/10/10 13:25:28;;;;;;;;;;;13.00;99.90;;;;;;5071422;28;19912;-74
2021/10/10 13:27:53;;;;;;;;;;;13.20;99.90;;;;;;5064472;28;20455;-74
2021/10/10 13:30:19;;;;;;;;;;;13.40;99.90;;;;;;5080687;28;19916;-73
2021/10/10 13:32:46;;;;;;;;;;;13.50;99.90;;;;;;5077126;28;19927;-74
2021/10/10 13:35:12;;;;;;;;;;;13.70;99.90;;;;;;5079196;28;19909;-74
2021/10/10 13:37:38;;;;;;;;;;;13.90;99.90;;;;;;5072498;28;19919;-74
2021/10/10 13:40:05;;;;;;;;;;;13.60;99.90;;;;;;5073883;28;20399;-73
2021/10/10 13:42:31;;;;;;;;;;;13.50;99.90;;;;;;5071888;28;19947;-74
2021/10/10 13:44:57;;;;;;;;;;;13.50;99.90;;;;;;5067566;28;19944;-73
2021/10/10 13:47:23;;;;;;;;;;;13.50;99.90;;;;;;5068329;28;19960;-74
2021/10/10 13:49:52;;;;;;;;;;;13.30;99.90;;;;;;5073809;28;20313;-75
2021/10/10 13:52:18;;;;;;;;;;;13.10;99.90;;;;;;5080041;28;20434;-73
2021/10/10 13:54:45;;;;;;;;;;;13.20;99.90;;;;;;5067778;28;19913;-73
2021/10/10 13:57:12;;;;;;;;;;;13.30;99.90;;;;;;5053866;28;20598;-73
2021/10/10 13:59:38;;;;;;;;;;;13.30;99.90;;;;;;5054153;28;19915;-74
2021/10/10 14:02:03;;;;;;;;;;;13.20;99.90;;;;;;5054167;28;20004;-74
2021/10/10 14:04:30;;;;;;;;;;;13.20;99.90;;;;;;5072909;28;20433;-75
2021/10/10 14:06:55;;;;;;;;;;;13.30;99.90;;;;;;5073048;28;19913;-75
2021/10/10 14:09:21;;;;;;;;;;;13.10;99.90;;;;;;5073887;28;19918;-74
2021/10/10 14:11:46;;;;;;;;;;;13.20;99.90;;;;;;5060741;28;19913;-75
2021/10/10 14:14:12;;;;;;;;;;;13.30;99.90;;;;;;5053909;28;20007;-74
2021/10/10 14:16:38;;;;;;;;;;;13.30;99.90;;;;;;5053752;28;20445;-74
2021/10/10 14:19:04;;;;;;;;;;;13.40;99.90;;;;;;5066113;28;19958;-74